sensor_id;sensor_type;location;lat;lon;timestamp;P1;durP1;ratioP1;P2;durP2;ratioP2
76094;SDS011;64821;13.710;100.604;2023-07-29T00:00:07;8.05;;;3.10;;
76094;SDS011;64821;13.710;100.604;2023-07-29T00:01:13;8.60;;;3.00;;
76094;SDS011;64821;13.710;100.604;2023-07-29T00:02:17;7.55;;;2.60;;
76094;SDS011;64821;13.710;100.604;2023-07-29T00:03:20;7.55;;;2.78;;
76094;SDS011;64821;13.710;100.604;2023-07-29T00:04:25;8.37;;;3.10;;
76094;SDS011;64821;13.710;100.604;2023-07-29T00:05:29;8.18;;;3.13;;
76094;SDS011;64821;13.710;100.604;2023-07-29T00:06:32;8.65;;;3.35;;
76094;SDS011;64821;13.710;100.604;2023-07-29T00:07:37;7.38;;;2.92;;
76094;SDS011;64821;13.710;100.604;2023-07-29T00:08:40;9.82;;;3.55;;
76094;SDS011;64821;13.710;100.604;2023-07-29T00:09:44;8.23;;;3.03;;
76094;SDS011;64821;13.710;100.604;2023-07-29T00:10:48;9.45;;;3.20;;
76094;SDS011;64821;13.710;100.604;2023-07-29T00:11:52;7.72;;;3.17;;
76094;SDS011;64821;13.710;100.604;2023-07-29T00:12:56;9.50;;;3.10;;
76094;SDS011;64821;13.710;100.604;2023-07-29T00:14:00;8.00;;;2.80;;
76094;SDS011;64821;13.710;100.604;2023-07-29T00:15:04;8.43;;;3.10;;
76094;SDS011;64821;13.710;100.604;2023-07-29T00:16:10;8.20;;;2.97;;
76094;SDS011;64821;13.710;100.604;2023-07-29T00:17:14;7.10;;;2.78;;
76094;SDS011;64821;13.710;100.604;2023-07-29T00:18:18;7.25;;;3.05;;
76094;SDS011;64821;13.710;100.604;2023-07-29T00:19:22;7.88;;;3.13;;
76094;SDS011;64821;13.710;100.604;2023-07-29T00:20:25;7.80;;;3.00;;
76094;SDS011;64821;13.710;100.604;2023-07-29T00:21:29;10.15;;;3.05;;
76094;SDS011;64821;13.710;100.604;2023-07-29T00:22:33;7.97;;;2.90;;
76094;SDS011;64821;13.710;100.604;2023-07-29T00:23:37;7.95;;;3.28;;
76094;SDS011;64821;13.710;100.604;2023-07-29T00:24:40;9.02;;;3.30;;
76094;SDS011;64821;13.710;100.604;2023-07-29T00:25:44;8.47;;;3.07;;
76094;SDS011;64821;13.710;100.604;2023-07-29T00:26:48;7.18;;;2.75;;
76094;SDS011;64821;13.710;100.604;2023-07-29T00:27:54;7.75;;;2.97;;
76094;SDS011;64821;13.710;100.604;2023-07-29T00:29:00;8.30;;;3.20;;
76094;SDS011;64821;13.710;100.604;2023-07-29T00:30:04;9.50;;;3.10;;
76094;SDS011;64821;13.710;100.604;2023-07-29T00:31:10;7.67;;;3.10;;
76094;SDS011;64821;13.710;100.604;2023-07-29T00:32:14;8.38;;;3.28;;
76094;SDS011;64821;13.710;100.604;2023-07-29T00:33:18;7.57;;;3.20;;
76094;SDS011;64821;13.710;100.604;2023-07-29T00:34:22;8.88;;;3.25;;
76094;SDS011;64821;13.710;100.604;2023-07-29T00:35:26;8.20;;;3.47;;
76094;SDS011;64821;13.710;100.604;2023-07-29T00:36:29;8.43;;;2.93;;
76094;SDS011;64821;13.710;100.604;2023-07-29T00:37:33;8.15;;;3.13;;
76094;SDS011;64821;13.710;100.604;2023-07-29T00:38:37;9.07;;;3.63;;
76094;SDS011;64821;13.710;100.604;2023-07-29T00:39:40;8.95;;;3.30;;
76094;SDS011;64821;13.710;100.604;2023-07-29T00:40:44;9.02;;;3.25;;
76094;SDS011;64821;13.710;100.604;2023-07-29T00:41:48;8.87;;;3.30;;
76094;SDS011;64821;13.710;100.604;2023-07-29T00:42:52;10.63;;;3.95;;
76094;SDS011;64821;13.710;100.604;2023-07-29T00:43:55;7.82;;;3.40;;
76094;SDS011;64821;13.710;100.604;2023-07-29T00:44:59;8.15;;;3.50;;
76094;SDS011;64821;13.710;100.604;2023-07-29T00:46:05;8.68;;;3.22;;
76094;SDS011;64821;13.710;100.604;2023-07-29T00:47:11;10.53;;;3.50;;
76094;SDS011;64821;13.710;100.604;2023-07-29T00:48:17;9.40;;;3.30;;
76094;SDS011;64821;13.710;100.604;2023-07-29T00:49:21;8.63;;;3.70;;
76094;SDS011;64821;13.710;100.604;2023-07-29T00:50:25;9.40;;;3.50;;
76094;SDS011;64821;13.710;100.604;2023-07-29T00:51:30;8.02;;;3.47;;
76094;SDS011;64821;13.710;100.604;2023-07-29T00:52:33;9.57;;;3.50;;
76094;SDS011;64821;13.710;100.604;2023-07-29T00:53:37;7.47;;;3.22;;
76094;SDS011;64821;13.710;100.604;2023-07-29T00:54:41;8.32;;;3.40;;
76094;SDS011;64821;13.710;100.604;2023-07-29T00:55:46;7.40;;;2.95;;
76094;SDS011;64821;13.710;100.604;2023-07-29T00:56:49;7.88;;;3.35;;
76094;SDS011;64821;13.710;100.604;2023-07-29T00:57:54;7.13;;;2.87;;
76094;SDS011;64821;13.710;100.604;2023-07-29T00:58:57;8.32;;;3.10;;
76094;SDS011;64821;13.710;100.604;2023-07-29T01:00:02;8.20;;;3.45;;
76094;SDS011;64821;13.710;100.604;2023-07-29T01:01:08;8.32;;;3.05;;
76094;SDS011;64821;13.710;100.604;2023-07-29T01:02:12;8.57;;;3.65;;
76094;SDS011;64821;13.710;100.604;2023-07-29T01:03:16;8.23;;;3.30;;
76094;SDS011;64821;13.710;100.604;2023-07-29T01:04:20;7.95;;;3.35;;
76094;SDS011;64821;13.710;100.604;2023-07-29T01:05:24;7.90;;;3.42;;
76094;SDS011;64821;13.710;100.604;2023-07-29T01:06:38;7.18;;;3.10;;
76094;SDS011;64821;13.710;100.604;2023-07-29T01:07:52;8.68;;;3.53;;
76094;SDS011;64821;13.710;100.604;2023-07-29T01:09:02;7.47;;;3.40;;
76094;SDS011;64821;13.710;100.604;2023-07-29T01:10:10;7.15;;;3.15;;
76094;SDS011;64821;13.710;100.604;2023-07-29T01:11:24;8.57;;;3.42;;
76094;SDS011;64821;13.710;100.604;2023-07-29T01:12:37;8.55;;;3.20;;
76094;SDS011;64821;13.710;100.604;2023-07-29T01:13:53;7.80;;;3.13;;
76094;SDS011;64821;13.710;100.604;2023-07-29T01:15:03;7.80;;;3.10;;
76094;SDS011;64821;13.710;100.604;2023-07-29T01:16:17;9.73;;;3.22;;
76094;SDS011;64821;13.710;100.604;2023-07-29T01:17:25;8.48;;;3.20;;
76094;SDS011;64821;13.710;100.604;2023-07-29T01:18:35;8.18;;;2.80;;
76094;SDS011;64821;13.710;100.604;2023-07-29T01:19:42;8.30;;;3.10;;
76094;SDS011;64821;13.710;100.604;2023-07-29T01:20:51;8.37;;;3.40;;
76094;SDS011;64821;13.710;100.604;2023-07-29T01:21:57;8.68;;;3.03;;
76094;SDS011;64821;13.710;100.604;2023-07-29T01:23:02;8.15;;;2.90;;
76094;SDS011;64821;13.710;100.604;2023-07-29T01:24:07;7.15;;;2.80;;
76094;SDS011;64821;13.710;100.604;2023-07-29T01:25:11;7.80;;;2.95;;
76094;SDS011;64821;13.710;100.604;2023-07-29T01:26:15;8.63;;;3.00;;
76094;SDS011;64821;13.710;100.604;2023-07-29T01:27:19;6.63;;;3.00;;
76094;SDS011;64821;13.710;100.604;2023-07-29T01:28:22;8.18;;;3.00;;
76094;SDS011;64821;13.710;100.604;2023-07-29T01:29:27;7.00;;;2.67;;
76094;SDS011;64821;13.710;100.604;2023-07-29T01:30:33;6.82;;;2.80;;
76094;SDS011;64821;13.710;100.604;2023-07-29T01:31:43;8.20;;;3.10;;
76094;SDS011;64821;13.710;100.604;2023-07-29T01:32:51;8.50;;;3.33;;
76094;SDS011;64821;13.710;100.604;2023-07-29T01:34:04;8.02;;;3.00;;
76094;SDS011;64821;13.710;100.604;2023-07-29T01:35:17;7.32;;;3.20;;
76094;SDS011;64821;13.710;100.604;2023-07-29T01:36:27;8.52;;;3.38;;
76094;SDS011;64821;13.710;100.604;2023-07-29T01:37:33;8.57;;;3.10;;
76094;SDS011;64821;13.710;100.604;2023-07-29T01:38:40;10.13;;;2.88;;
76094;SDS011;64821;13.710;100.604;2023-07-29T01:39:48;7.90;;;3.15;;
76094;SDS011;64821;13.710;100.604;2023-07-29T01:40:53;8.45;;;3.30;;
76094;SDS011;64821;13.710;100.604;2023-07-29T01:41:59;8.50;;;3.67;;
76094;SDS011;64821;13.710;100.604;2023-07-29T01:43:03;7.83;;;3.20;;
76094;SDS011;64821;13.710;100.604;2023-07-29T01:44:07;7.60;;;3.10;;
76094;SDS011;64821;13.710;100.604;2023-07-29T01:45:12;7.60;;;3.00;;
76094;SDS011;64821;13.710;100.604;2023-07-29T01:46:15;7.25;;;2.83;;
76094;SDS011;64821;13.710;100.604;2023-07-29T01:47:20;8.43;;;3.03;;
76094;SDS011;64821;13.710;100.604;2023-07-29T01:48:24;8.67;;;3.10;;
76094;SDS011;64821;13.710;100.604;2023-07-29T01:49:27;7.95;;;3.22;;
76094;SDS011;64821;13.710;100.604;2023-07-29T01:50:31;8.15;;;3.50;;
76094;SDS011;64821;13.710;100.604;2023-07-29T01:51:35;7.80;;;3.30;;
76094;SDS011;64821;13.710;100.604;2023-07-29T01:52:39;8.63;;;3.50;;
76094;SDS011;64821;13.710;100.604;2023-07-29T01:53:43;9.27;;;3.00;;
76094;SDS011;64821;13.710;100.604;2023-07-29T01:54:48;8.20;;;3.33;;
76094;SDS011;64821;13.710;100.604;2023-07-29T01:55:52;8.45;;;2.80;;
76094;SDS011;64821;13.710;100.604;2023-07-29T01:56:56;8.60;;;2.90;;
76094;SDS011;64821;13.710;100.604;2023-07-29T01:57:59;8.32;;;3.40;;
76094;SDS011;64821;13.710;100.604;2023-07-29T01:59:03;8.13;;;3.10;;
76094;SDS011;64821;13.710;100.604;2023-07-29T02:00:07;8.05;;;3.22;;
76094;SDS011;64821;13.710;100.604;2023-07-29T02:01:12;8.45;;;3.08;;
76094;SDS011;64821;13.710;100.604;2023-07-29T02:02:16;8.38;;;3.17;;
76094;SDS011;64821;13.710;100.604;2023-07-29T02:03:19;9.15;;;3.75;;
76094;SDS011;64821;13.710;100.604;2023-07-29T02:04:23;8.03;;;3.50;;
76094;SDS011;64821;13.710;100.604;2023-07-29T02:05:27;9.52;;;3.50;;
76094;SDS011;64821;13.710;100.604;2023-07-29T02:06:31;8.52;;;3.28;;
76094;SDS011;64821;13.710;100.604;2023-07-29T02:07:35;8.32;;;3.30;;
76094;SDS011;64821;13.710;100.604;2023-07-29T02:08:39;9.10;;;3.40;;
76094;SDS011;64821;13.710;100.604;2023-07-29T02:09:42;8.00;;;3.20;;
76094;SDS011;64821;13.710;100.604;2023-07-29T02:10:48;10.00;;;3.30;;
76094;SDS011;64821;13.710;100.604;2023-07-29T02:11:52;8.38;;;3.10;;
76094;SDS011;64821;13.710;100.604;2023-07-29T02:12:56;8.07;;;3.40;;
76094;SDS011;64821;13.710;100.604;2023-07-29T02:13:59;9.23;;;3.30;;
76094;SDS011;64821;13.710;100.604;2023-07-29T02:15:03;9.83;;;3.57;;
76094;SDS011;64821;13.710;100.604;2023-07-29T02:16:07;10.77;;;3.75;;
76094;SDS011;64821;13.710;100.604;2023-07-29T02:17:11;9.68;;;3.55;;
76094;SDS011;64821;13.710;100.604;2023-07-29T02:18:15;8.40;;;3.25;;
76094;SDS011;64821;13.710;100.604;2023-07-29T02:19:19;10.98;;;3.60;;
76094;SDS011;64821;13.710;100.604;2023-07-29T02:20:23;8.30;;;3.50;;
76094;SDS011;64821;13.710;100.604;2023-07-29T02:21:26;8.10;;;3.33;;
76094;SDS011;64821;13.710;100.604;2023-07-29T02:22:30;10.98;;;3.83;;
76094;SDS011;64821;13.710;100.604;2023-07-29T02:23:34;8.88;;;3.35;;
76094;SDS011;64821;13.710;100.604;2023-07-29T02:24:38;8.07;;;3.58;;
76094;SDS011;64821;13.710;100.604;2023-07-29T02:25:41;8.57;;;3.30;;
76094;SDS011;64821;13.710;100.604;2023-07-29T02:26:47;8.98;;;3.78;;
76094;SDS011;64821;13.710;100.604;2023-07-29T02:27:51;10.15;;;3.97;;
76094;SDS011;64821;13.710;100.604;2023-07-29T02:28:54;8.38;;;3.70;;
76094;SDS011;64821;13.710;100.604;2023-07-29T02:29:58;8.23;;;3.33;;
76094;SDS011;64821;13.710;100.604;2023-07-29T02:31:15;8.87;;;3.53;;
76094;SDS011;64821;13.710;100.604;2023-07-29T02:32:20;8.77;;;3.35;;
76094;SDS011;64821;13.710;100.604;2023-07-29T02:33:24;9.23;;;3.67;;
76094;SDS011;64821;13.710;100.604;2023-07-29T02:34:28;9.82;;;3.30;;
76094;SDS011;64821;13.710;100.604;2023-07-29T02:35:32;8.57;;;3.30;;
76094;SDS011;64821;13.710;100.604;2023-07-29T02:36:35;9.93;;;3.40;;
76094;SDS011;64821;13.710;100.604;2023-07-29T02:37:40;9.15;;;3.25;;
76094;SDS011;64821;13.710;100.604;2023-07-29T02:38:44;9.75;;;3.50;;
76094;SDS011;64821;13.710;100.604;2023-07-29T02:39:47;8.63;;;3.80;;
76094;SDS011;64821;13.710;100.604;2023-07-29T02:40:51;8.60;;;3.35;;
76094;SDS011;64821;13.710;100.604;2023-07-29T02:41:57;9.10;;;3.40;;
76094;SDS011;64821;13.710;100.604;2023-07-29T02:43:01;9.27;;;3.03;;
76094;SDS011;64821;13.710;100.604;2023-07-29T02:44:05;8.52;;;3.00;;
76094;SDS011;64821;13.710;100.604;2023-07-29T02:45:09;8.98;;;2.72;;
76094;SDS011;64821;13.710;100.604;2023-07-29T02:46:12;8.10;;;2.90;;
76094;SDS011;64821;13.710;100.604;2023-07-29T02:47:16;8.73;;;2.90;;
76094;SDS011;64821;13.710;100.604;2023-07-29T02:48:20;8.43;;;2.70;;
76094;SDS011;64821;13.710;100.604;2023-07-29T02:49:24;7.72;;;2.55;;
76094;SDS011;64821;13.710;100.604;2023-07-29T02:50:27;7.40;;;2.40;;
76094;SDS011;64821;13.710;100.604;2023-07-29T02:51:31;7.88;;;2.38;;
76094;SDS011;64821;13.710;100.604;2023-07-29T02:52:35;8.90;;;2.83;;
76094;SDS011;64821;13.710;100.604;2023-07-29T02:53:39;8.50;;;2.78;;
76094;SDS011;64821;13.710;100.604;2023-07-29T02:54:43;7.07;;;2.60;;
76094;SDS011;64821;13.710;100.604;2023-07-29T02:55:46;7.18;;;2.88;;
76094;SDS011;64821;13.710;100.604;2023-07-29T02:56:50;7.65;;;2.70;;
76094;SDS011;64821;13.710;100.604;2023-07-29T02:57:56;7.53;;;2.50;;
76094;SDS011;64821;13.710;100.604;2023-07-29T02:58:59;6.20;;;2.10;;
76094;SDS011;64821;13.710;100.604;2023-07-29T03:00:04;9.63;;;2.83;;
76094;SDS011;64821;13.710;100.604;2023-07-29T03:01:08;8.20;;;2.72;;
76094;SDS011;64821;13.710;100.604;2023-07-29T03:02:12;7.53;;;2.70;;
76094;SDS011;64821;13.710;100.604;2023-07-29T03:03:16;7.03;;;2.33;;
76094;SDS011;64821;13.710;100.604;2023-07-29T03:04:20;7.20;;;2.55;;
76094;SDS011;64821;13.710;100.604;2023-07-29T03:05:24;7.00;;;2.38;;
76094;SDS011;64821;13.710;100.604;2023-07-29T03:06:29;9.43;;;2.72;;
76094;SDS011;64821;13.710;100.604;2023-07-29T03:07:33;8.50;;;2.60;;
76094;SDS011;64821;13.710;100.604;2023-07-29T03:08:37;7.10;;;2.80;;
76094;SDS011;64821;13.710;100.604;2023-07-29T03:09:41;7.40;;;2.50;;
76094;SDS011;64821;13.710;100.604;2023-07-29T03:10:45;6.82;;;2.47;;
76094;SDS011;64821;13.710;100.604;2023-07-29T03:11:48;6.90;;;2.40;;
76094;SDS011;64821;13.710;100.604;2023-07-29T03:12:53;7.57;;;2.38;;
76094;SDS011;64821;13.710;100.604;2023-07-29T03:13:59;7.47;;;2.37;;
76094;SDS011;64821;13.710;100.604;2023-07-29T03:15:03;7.28;;;2.45;;
76094;SDS011;64821;13.710;100.604;2023-07-29T03:16:07;6.30;;;2.40;;
76094;SDS011;64821;13.710;100.604;2023-07-29T03:17:12;7.25;;;2.45;;
76094;SDS011;64821;13.710;100.604;2023-07-29T03:18:16;7.28;;;2.17;;
76094;SDS011;64821;13.710;100.604;2023-07-29T03:19:20;8.27;;;2.40;;
76094;SDS011;64821;13.710;100.604;2023-07-29T03:20:24;6.32;;;2.03;;
76094;SDS011;64821;13.710;100.604;2023-07-29T03:21:27;7.25;;;2.40;;
76094;SDS011;64821;13.710;100.604;2023-07-29T03:22:31;8.05;;;2.45;;
76094;SDS011;64821;13.710;100.604;2023-07-29T03:23:35;7.97;;;2.08;;
76094;SDS011;64821;13.710;100.604;2023-07-29T03:24:39;7.10;;;2.10;;
76094;SDS011;64821;13.710;100.604;2023-07-29T03:25:43;6.72;;;2.20;;
76094;SDS011;64821;13.710;100.604;2023-07-29T03:26:47;7.93;;;2.50;;
76094;SDS011;64821;13.710;100.604;2023-07-29T03:27:50;6.53;;;2.38;;
76094;SDS011;64821;13.710;100.604;2023-07-29T03:28:56;9.00;;;2.30;;
76094;SDS011;64821;13.710;100.604;2023-07-29T03:30:00;7.50;;;2.03;;
76094;SDS011;64821;13.710;100.604;2023-07-29T03:31:03;6.88;;;1.98;;
76094;SDS011;64821;13.710;100.604;2023-07-29T03:32:07;7.88;;;2.15;;
76094;SDS011;64821;13.710;100.604;2023-07-29T03:33:11;7.38;;;2.00;;
76094;SDS011;64821;13.710;100.604;2023-07-29T03:34:15;6.25;;;1.80;;
76094;SDS011;64821;13.710;100.604;2023-07-29T03:35:19;6.63;;;1.90;;
76094;SDS011;64821;13.710;100.604;2023-07-29T03:36:22;7.05;;;1.90;;
76094;SDS011;64821;13.710;100.604;2023-07-29T03:37:26;7.32;;;2.10;;
76094;SDS011;64821;13.710;100.604;2023-07-29T03:38:30;6.18;;;1.70;;
76094;SDS011;64821;13.710;100.604;2023-07-29T03:39:34;5.80;;;1.73;;
76094;SDS011;64821;13.710;100.604;2023-07-29T03:40:38;6.10;;;1.70;;
76094;SDS011;64821;13.710;100.604;2023-07-29T03:41:42;6.03;;;1.88;;
76094;SDS011;64821;13.710;100.604;2023-07-29T03:42:45;7.32;;;2.13;;
76094;SDS011;64821;13.710;100.604;2023-07-29T03:43:49;6.18;;;1.65;;
76094;SDS011;64821;13.710;100.604;2023-07-29T03:44:54;7.00;;;1.80;;
76094;SDS011;64821;13.710;100.604;2023-07-29T03:45:59;5.50;;;1.90;;
76094;SDS011;64821;13.710;100.604;2023-07-29T03:47:04;5.88;;;1.83;;
76094;SDS011;64821;13.710;100.604;2023-07-29T03:48:08;6.55;;;1.90;;
76094;SDS011;64821;13.710;100.604;2023-07-29T03:49:12;5.72;;;1.75;;
76094;SDS011;64821;13.710;100.604;2023-07-29T03:50:16;6.15;;;2.00;;
76094;SDS011;64821;13.710;100.604;2023-07-29T03:51:20;6.13;;;1.80;;
76094;SDS011;64821;13.710;100.604;2023-07-29T03:52:23;7.07;;;2.00;;
76094;SDS011;64821;13.710;100.604;2023-07-29T03:53:27;6.40;;;1.75;;
76094;SDS011;64821;13.710;100.604;2023-07-29T03:54:31;5.63;;;1.85;;
76094;SDS011;64821;13.710;100.604;2023-07-29T03:55:35;6.50;;;1.70;;
76094;SDS011;64821;13.710;100.604;2023-07-29T03:56:39;7.57;;;1.53;;
76094;SDS011;64821;13.710;100.604;2023-07-29T03:57:42;5.82;;;1.70;;
76094;SDS011;64821;13.710;100.604;2023-07-29T03:58:47;5.85;;;1.80;;
76094;SDS011;64821;13.710;100.604;2023-07-29T03:59:50;6.85;;;1.90;;
76094;SDS011;64821;13.710;100.604;2023-07-29T04:00:56;6.32;;;1.52;;
76094;SDS011;64821;13.710;100.604;2023-07-29T04:02:01;5.30;;;1.63;;
76094;SDS011;64821;13.710;100.604;2023-07-29T04:03:05;6.10;;;1.60;;
76094;SDS011;64821;13.710;100.604;2023-07-29T04:04:09;5.50;;;1.77;;
76094;SDS011;64821;13.710;100.604;2023-07-29T04:05:13;9.02;;;1.67;;
76094;SDS011;64821;13.710;100.604;2023-07-29T04:06:17;4.70;;;1.20;;
76094;SDS011;64821;13.710;100.604;2023-07-29T04:07:20;6.60;;;1.57;;
76094;SDS011;64821;13.710;100.604;2023-07-29T04:08:24;6.15;;;1.92;;
76094;SDS011;64821;13.710;100.604;2023-07-29T04:09:28;6.47;;;1.77;;
76094;SDS011;64821;13.710;100.604;2023-07-29T04:10:32;5.18;;;1.40;;
76094;SDS011;64821;13.710;100.604;2023-07-29T04:11:36;5.97;;;1.73;;
76094;SDS011;64821;13.710;100.604;2023-07-29T04:12:40;5.60;;;1.40;;
76094;SDS011;64821;13.710;100.604;2023-07-29T04:13:43;5.18;;;1.50;;
76094;SDS011;64821;13.710;100.604;2023-07-29T04:14:47;5.50;;;1.50;;
76094;SDS011;64821;13.710;100.604;2023-07-29T04:15:51;5.25;;;1.40;;
76094;SDS011;64821;13.710;100.604;2023-07-29T04:16:57;6.10;;;1.58;;
76094;SDS011;64821;13.710;100.604;2023-07-29T04:18:00;5.07;;;1.30;;
76094;SDS011;64821;13.710;100.604;2023-07-29T04:19:04;6.55;;;1.50;;
76094;SDS011;64821;13.710;100.604;2023-07-29T04:20:08;5.43;;;1.60;;
76094;SDS011;64821;13.710;100.604;2023-07-29T04:21:13;5.38;;;1.60;;
76094;SDS011;64821;13.710;100.604;2023-07-29T04:22:17;5.80;;;1.70;;
76094;SDS011;64821;13.710;100.604;2023-07-29T04:23:21;6.13;;;1.50;;
76094;SDS011;64821;13.710;100.604;2023-07-29T04:24:24;7.63;;;1.60;;
76094;SDS011;64821;13.710;100.604;2023-07-29T04:25:28;5.40;;;1.20;;
76094;SDS011;64821;13.710;100.604;2023-07-29T04:26:32;7.22;;;1.40;;
76094;SDS011;64821;13.710;100.604;2023-07-29T04:27:37;4.60;;;1.42;;
76094;SDS011;64821;13.710;100.604;2023-07-29T04:28:41;7.57;;;1.50;;
76094;SDS011;64821;13.710;100.604;2023-07-29T04:29:45;6.35;;;1.58;;
76094;SDS011;64821;13.710;100.604;2023-07-29T04:30:49;5.13;;;1.33;;
76094;SDS011;64821;13.710;100.604;2023-07-29T04:31:53;5.13;;;1.40;;
76094;SDS011;64821;13.710;100.604;2023-07-29T04:32:58;5.32;;;1.63;;
76094;SDS011;64821;13.710;100.604;2023-07-29T04:34:02;5.37;;;1.57;;
76094;SDS011;64821;13.710;100.604;2023-07-29T04:35:07;5.82;;;1.77;;
76094;SDS011;64821;13.710;100.604;2023-07-29T04:36:11;5.38;;;1.35;;
76094;SDS011;64821;13.710;100.604;2023-07-29T04:37:15;4.60;;;1.20;;
76094;SDS011;64821;13.710;100.604;2023-07-29T04:38:19;7.05;;;1.30;;
76094;SDS011;64821;13.710;100.604;2023-07-29T04:39:22;5.87;;;1.57;;
76094;SDS011;64821;13.710;100.604;2023-07-29T04:40:26;4.88;;;1.38;;
76094;SDS011;64821;13.710;100.604;2023-07-29T04:41:30;5.38;;;1.50;;
76094;SDS011;64821;13.710;100.604;2023-07-29T04:42:34;5.47;;;1.40;;
76094;SDS011;64821;13.710;100.604;2023-07-29T04:43:38;5.60;;;1.60;;
76094;SDS011;64821;13.710;100.604;2023-07-29T04:44:42;5.67;;;1.57;;
76094;SDS011;64821;13.710;100.604;2023-07-29T04:45:46;5.10;;;1.58;;
76094;SDS011;64821;13.710;100.604;2023-07-29T04:46:50;5.60;;;1.70;;
76094;SDS011;64821;13.710;100.604;2023-07-29T04:47:53;5.35;;;1.50;;
76094;SDS011;64821;13.710;100.604;2023-07-29T04:48:59;4.90;;;1.45;;
76094;SDS011;64821;13.710;100.604;2023-07-29T04:50:03;7.03;;;1.67;;
76094;SDS011;64821;13.710;100.604;2023-07-29T04:51:07;5.57;;;1.38;;
76094;SDS011;64821;13.710;100.604;2023-07-29T04:52:11;6.55;;;1.67;;
76094;SDS011;64821;13.710;100.604;2023-07-29T04:53:15;5.65;;;1.60;;
76094;SDS011;64821;13.710;100.604;2023-07-29T04:54:18;5.90;;;1.55;;
76094;SDS011;64821;13.710;100.604;2023-07-29T04:55:22;5.67;;;1.20;;
76094;SDS011;64821;13.710;100.604;2023-07-29T04:56:26;4.80;;;1.30;;
76094;SDS011;64821;13.710;100.604;2023-07-29T04:57:30;5.63;;;1.38;;
76094;SDS011;64821;13.710;100.604;2023-07-29T04:58:34;6.63;;;1.58;;
76094;SDS011;64821;13.710;100.604;2023-07-29T04:59:38;5.25;;;1.60;;
76094;SDS011;64821;13.710;100.604;2023-07-29T05:00:41;4.57;;;1.30;;
76094;SDS011;64821;13.710;100.604;2023-07-29T05:01:45;5.05;;;1.45;;
76094;SDS011;64821;13.710;100.604;2023-07-29T05:02:49;5.53;;;1.58;;
76094;SDS011;64821;13.710;100.604;2023-07-29T05:03:53;6.00;;;1.58;;
76094;SDS011;64821;13.710;100.604;2023-07-29T05:04:59;5.35;;;1.40;;
76094;SDS011;64821;13.710;100.604;2023-07-29T05:06:03;4.70;;;1.40;;
76094;SDS011;64821;13.710;100.604;2023-07-29T05:07:06;4.68;;;1.30;;
76094;SDS011;64821;13.710;100.604;2023-07-29T05:08:10;4.90;;;1.40;;
76094;SDS011;64821;13.710;100.604;2023-07-29T05:09:14;5.13;;;1.52;;
76094;SDS011;64821;13.710;100.604;2023-07-29T05:10:18;6.07;;;1.40;;
76094;SDS011;64821;13.710;100.604;2023-07-29T05:11:22;5.07;;;1.60;;
76094;SDS011;64821;13.710;100.604;2023-07-29T05:12:26;5.50;;;1.63;;
76094;SDS011;64821;13.710;100.604;2023-07-29T05:13:30;5.03;;;1.50;;
76094;SDS011;64821;13.710;100.604;2023-07-29T05:14:33;5.07;;;1.30;;
76094;SDS011;64821;13.710;100.604;2023-07-29T05:15:37;5.57;;;1.80;;
76094;SDS011;64821;13.710;100.604;2023-07-29T05:16:41;5.73;;;1.30;;
76094;SDS011;64821;13.710;100.604;2023-07-29T05:17:45;5.47;;;1.38;;
76094;SDS011;64821;13.710;100.604;2023-07-29T05:18:49;5.70;;;1.70;;
76094;SDS011;64821;13.710;100.604;2023-07-29T05:19:53;5.43;;;1.50;;
76094;SDS011;64821;13.710;100.604;2023-07-29T05:20:58;6.15;;;1.60;;
76094;SDS011;64821;13.710;100.604;2023-07-29T05:22:02;5.50;;;1.63;;
76094;SDS011;64821;13.710;100.604;2023-07-29T05:23:06;5.10;;;1.70;;
76094;SDS011;64821;13.710;100.604;2023-07-29T05:24:10;5.63;;;1.60;;
76094;SDS011;64821;13.710;100.604;2023-07-29T05:25:14;5.35;;;1.50;;
76094;SDS011;64821;13.710;100.604;2023-07-29T05:26:18;5.03;;;1.60;;
76094;SDS011;64821;13.710;100.604;2023-07-29T05:27:22;5.53;;;1.50;;
76094;SDS011;64821;13.710;100.604;2023-07-29T05:28:25;4.70;;;1.42;;
76094;SDS011;64821;13.710;100.604;2023-07-29T05:29:29;4.95;;;1.67;;
76094;SDS011;64821;13.710;100.604;2023-07-29T05:30:33;5.68;;;1.50;;
76094;SDS011;64821;13.710;100.604;2023-07-29T05:31:37;6.38;;;1.60;;
76094;SDS011;64821;13.710;100.604;2023-07-29T05:32:41;4.70;;;1.40;;
76094;SDS011;64821;13.710;100.604;2023-07-29T05:33:45;6.40;;;1.73;;
76094;SDS011;64821;13.710;100.604;2023-07-29T05:34:49;5.53;;;1.70;;
76094;SDS011;64821;13.710;100.604;2023-07-29T05:35:52;5.88;;;1.58;;
76094;SDS011;64821;13.710;100.604;2023-07-29T05:36:58;5.45;;;1.92;;
76094;SDS011;64821;13.710;100.604;2023-07-29T05:38:02;5.57;;;1.70;;
76094;SDS011;64821;13.710;100.604;2023-07-29T05:39:06;7.15;;;2.00;;
76094;SDS011;64821;13.710;100.604;2023-07-29T05:40:10;5.65;;;1.90;;
76094;SDS011;64821;13.710;100.604;2023-07-29T05:41:14;6.15;;;2.03;;
76094;SDS011;64821;13.710;100.604;2023-07-29T05:42:17;6.57;;;2.35;;
76094;SDS011;64821;13.710;100.604;2023-07-29T05:43:21;6.37;;;2.13;;
76094;SDS011;64821;13.710;100.604;2023-07-29T05:44:26;6.72;;;2.15;;
76094;SDS011;64821;13.710;100.604;2023-07-29T05:45:30;7.47;;;2.08;;
76094;SDS011;64821;13.710;100.604;2023-07-29T05:46:34;6.72;;;2.10;;
76094;SDS011;64821;13.710;100.604;2023-07-29T05:47:38;6.10;;;1.90;;
76094;SDS011;64821;13.710;100.604;2023-07-29T05:48:42;5.53;;;1.97;;
76094;SDS011;64821;13.710;100.604;2023-07-29T05:49:46;6.32;;;2.22;;
76094;SDS011;64821;13.710;100.604;2023-07-29T05:50:50;5.97;;;1.95;;
76094;SDS011;64821;13.710;100.604;2023-07-29T05:51:53;6.97;;;2.60;;
76094;SDS011;64821;13.710;100.604;2023-07-29T05:52:59;6.95;;;2.30;;
76094;SDS011;64821;13.710;100.604;2023-07-29T05:54:03;6.23;;;2.30;;
76094;SDS011;64821;13.710;100.604;2023-07-29T05:55:07;5.97;;;2.42;;
76094;SDS011;64821;13.710;100.604;2023-07-29T05:56:11;6.00;;;2.25;;
76094;SDS011;64821;13.710;100.604;2023-07-29T05:57:15;7.03;;;2.63;;
76094;SDS011;64821;13.710;100.604;2023-07-29T05:58:18;7.60;;;2.60;;
76094;SDS011;64821;13.710;100.604;2023-07-29T05:59:22;6.80;;;2.37;;
76094;SDS011;64821;13.710;100.604;2023-07-29T06:00:26;7.60;;;2.20;;
76094;SDS011;64821;13.710;100.604;2023-07-29T06:01:30;6.75;;;2.10;;
76094;SDS011;64821;13.710;100.604;2023-07-29T06:02:34;6.18;;;2.40;;
76094;SDS011;64821;13.710;100.604;2023-07-29T06:03:38;6.57;;;2.20;;
76094;SDS011;64821;13.710;100.604;2023-07-29T06:04:42;7.17;;;2.13;;
76094;SDS011;64821;13.710;100.604;2023-07-29T06:05:45;6.20;;;2.30;;
76094;SDS011;64821;13.710;100.604;2023-07-29T06:06:49;7.28;;;2.28;;
76094;SDS011;64821;13.710;100.604;2023-07-29T06:07:53;6.97;;;2.47;;
76094;SDS011;64821;13.710;100.604;2023-07-29T06:08:58;7.50;;;2.50;;
76094;SDS011;64821;13.710;100.604;2023-07-29T06:10:02;5.60;;;2.20;;
76094;SDS011;64821;13.710;100.604;2023-07-29T06:11:06;6.88;;;2.38;;
76094;SDS011;64821;13.710;100.604;2023-07-29T06:12:10;6.65;;;2.30;;
76094;SDS011;64821;13.710;100.604;2023-07-29T06:13:14;7.20;;;2.33;;
76094;SDS011;64821;13.710;100.604;2023-07-29T06:14:18;6.60;;;2.20;;
76094;SDS011;64821;13.710;100.604;2023-07-29T06:15:22;6.93;;;2.30;;
76094;SDS011;64821;13.710;100.604;2023-07-29T06:16:26;6.18;;;2.20;;